sensor_id;sensor_type;location;lat;lon;timestamp;pressure;altitude;pressure_sealevel;temperature;humidity
24302;BME280;12421;49.732;20.078;2023-09-19T00:00:57;96308.77;;;15.78;85.85
24302;BME280;12421;49.732;20.078;2023-09-19T00:11:15;96311.60;;;16.03;85.74
24302;BME280;12421;49.732;20.078;2023-09-19T00:21:18;96317.46;;;16.20;85.27
24302;BME280;12421;49.732;20.078;2023-09-19T00:31:22;96320.95;;;16.29;85.05
24302;BME280;12421;49.732;20.078;2023-09-19T00:41:26;96308.41;;;16.16;85.31
24302;BME280;12421;49.732;20.078;2023-09-19T00:51:30;96297.46;;;16.07;85.93
24302;BME280;12421;49.732;20.078;2023-09-19T01:01:38;96294.27;;;16.03;86.99
24302;BME280;12421;49.732;20.078;2023-09-19T01:23:37;96277.75;;;16.45;87.44
24302;BME280;12421;49.732;20.078;2023-09-19T01:34:00;96269.33;;;16.55;86.35
24302;BME280;12421;49.732;20.078;2023-09-19T02:30:05;96244.29;;;16.80;86.93
24302;BME280;12421;49.732;20.078;2023-09-19T04:10:38;96115.10;;;17.22;86.71
24302;BME280;12421;49.732;20.078;2023-09-19T05:17:34;96117.55;;;17.65;86.92
24302;BME280;12421;49.732;20.078;2023-09-19T05:40:06;96121.23;;;17.96;86.29
24302;BME280;12421;49.732;20.078;2023-09-19T06:02:38;96131.20;;;18.15;86.25
24302;BME280;12421;49.732;20.078;2023-09-19T06:13:38;96144.42;;;18.14;86.10
24302;BME280;12421;49.732;20.078;2023-09-19T06:24:32;96156.28;;;18.15;86.50
24302;BME280;12421;49.732;20.078;2023-09-19T06:35:19;96163.96;;;18.30;86.63
24302;BME280;12421;49.732;20.078;2023-09-19T06:46:49;96169.08;;;18.35;86.62
24302;BME280;12421;49.732;20.078;2023-09-19T07:08:25;96188.30;;;18.83;87.10
24302;BME280;12421;49.732;20.078;2023-09-19T07:18:57;96195.45;;;18.95;87.00
24302;BME280;12421;49.732;20.078;2023-09-19T07:29:02;96202.95;;;19.07;86.84
24302;BME280;12421;49.732;20.078;2023-09-19T07:39:29;96207.25;;;19.25;86.70
24302;BME280;12421;49.732;20.078;2023-09-19T08:11:48;96261.23;;;19.28;85.97
24302;BME280;12421;49.732;20.078;2023-09-19T08:22:27;96278.48;;;19.12;86.45
24302;BME280;12421;49.732;20.078;2023-09-19T08:32:32;96298.36;;;18.83;86.29
24302;BME280;12421;49.732;20.078;2023-09-19T08:43:08;96318.91;;;18.48;85.59
24302;BME280;12421;49.732;20.078;2023-09-19T09:14:27;96352.65;;;18.34;86.69
24302;BME280;12421;49.732;20.078;2023-09-19T09:24:57;96369.05;;;18.41;86.14
24302;BME280;12421;49.732;20.078;2023-09-19T09:35:24;96375.83;;;18.40;86.34
24302;BME280;12421;49.732;20.078;2023-09-19T09:45:40;96388.51;;;18.43;86.78
24302;BME280;12421;49.732;20.078;2023-09-19T10:06:08;96414.66;;;19.31;87.18
24302;BME280;12421;49.732;20.078;2023-09-19T10:16:24;96426.09;;;19.45;85.29
24302;BME280;12421;49.732;20.078;2023-09-19T10:26:39;96430.05;;;19.43;84.80
24302;BME280;12421;49.732;20.078;2023-09-19T10:37:26;96438.73;;;19.41;84.47
24302;BME280;12421;49.732;20.078;2023-09-19T10:47:31;96446.02;;;19.38;85.14
24302;BME280;12421;49.732;20.078;2023-09-19T10:57:38;96454.80;;;19.33;84.67
24302;BME280;12421;49.732;20.078;2023-09-19T11:08:04;96459.65;;;19.32;85.25
24302;BME280;12421;49.732;20.078;2023-09-19T11:29:28;96466.36;;;19.63;84.97
24302;BME280;12421;49.732;20.078;2023-09-19T11:40:05;96471.26;;;19.52;84.31
24302;BME280;12421;49.732;20.078;2023-09-19T11:50:23;96485.66;;;19.49;84.32
24302;BME280;12421;49.732;20.078;2023-09-19T12:00:27;96492.83;;;19.38;83.93
24302;BME280;12421;49.732;20.078;2023-09-19T12:10:33;96501.39;;;19.48;84.53
24302;BME280;12421;49.732;20.078;2023-09-19T12:21:02;96505.52;;;19.54;84.09
24302;BME280;12421;49.732;20.078;2023-09-19T12:31:10;96515.63;;;19.71;84.23
24302;BME280;12421;49.732;20.078;2023-09-19T12:41:19;96514.45;;;19.93;83.45
24302;BME280;12421;49.732;20.078;2023-09-19T12:51:35;96509.97;;;20.13;82.87
24302;BME280;12421;49.732;20.078;2023-09-19T13:01:40;96512.02;;;20.46;82.23
24302;BME280;12421;49.732;20.078;2023-09-19T13:12:35;96515.95;;;20.77;81.91
24302;BME280;12421;49.732;20.078;2023-09-19T13:22:45;96515.37;;;21.44;81.10
24302;BME280;12421;49.732;20.078;2023-09-19T13:33:18;96524.35;;;21.90;79.56
24302;BME280;12421;49.732;20.078;2023-09-19T13:43:33;96532.30;;;22.09;78.34
24302;BME280;12421;49.732;20.078;2023-09-19T13:53:38;96535.15;;;21.89;77.33
24302;BME280;12421;49.732;20.078;2023-09-19T14:03:49;96536.42;;;21.62;77.80
24302;BME280;12421;49.732;20.078;2023-09-19T14:13:54;96530.80;;;21.60;77.65
24302;BME280;12421;49.732;20.078;2023-09-19T14:24:02;96528.39;;;21.85;77.80
24302;BME280;12421;49.732;20.078;2023-09-19T14:34:06;96528.91;;;22.03;76.00
24302;BME280;12421;49.732;20.078;2023-09-19T14:44:34;96534.54;;;21.78;75.80
24302;BME280;12421;49.732;20.078;2023-09-19T14:55:00;96546.20;;;21.54;75.94
24302;BME280;12421;49.732;20.078;2023-09-19T15:05:22;96544.42;;;21.33;76.69
24302;BME280;12421;49.732;20.078;2023-09-19T15:15:36;96544.04;;;21.22;77.15
24302;BME280;12421;49.732;20.078;2023-09-19T15:25:50;96543.27;;;20.89;76.66
24302;BME280;12421;49.732;20.078;2023-09-19T15:47:09;96579.86;;;20.38;78.39
24302;BME280;12421;49.732;20.078;2023-09-19T15:57:13;96590.58;;;20.41;79.22
24302;BME280;12421;49.732;20.078;2023-09-19T16:07:22;96593.38;;;20.29;79.14
24302;BME280;12421;49.732;20.078;2023-09-19T16:17:38;96596.65;;;20.15;79.11
24302;BME280;12421;49.732;20.078;2023-09-19T16:38:43;96603.84;;;19.74;80.24
24302;BME280;12421;49.732;20.078;2023-09-19T16:48:49;96600.91;;;19.52;80.55
24302;BME280;12421;49.732;20.078;2023-09-19T16:59:26;96607.88;;;19.38;81.21
24302;BME280;12421;49.732;20.078;2023-09-19T17:09:35;96615.97;;;19.21;81.56
24302;BME280;12421;49.732;20.078;2023-09-19T17:19:45;96623.15;;;19.16;81.97
24302;BME280;12421;49.732;20.078;2023-09-19T17:29:50;96636.68;;;18.98;82.14
24302;BME280;12421;49.732;20.078;2023-09-19T17:50:46;96640.88;;;18.70;82.97
24302;BME280;12421;49.732;20.078;2023-09-19T18:11:36;96664.70;;;18.51;84.09
24302;BME280;12421;49.732;20.078;2023-09-19T19:05:21;96726.80;;;18.10;84.53
24302;BME280;12421;49.732;20.078;2023-09-19T19:15:59;96726.83;;;17.98;84.43
24302;BME280;12421;49.732;20.078;2023-09-19T20:00:36;96756.30;;;17.34;84.25
24302;BME280;12421;49.732;20.078;2023-09-19T20:34:23;96769.02;;;17.00;85.26
24302;BME280;12421;49.732;20.078;2023-09-19T20:56:01;96779.84;;;17.13;85.77
24302;BME280;12421;49.732;20.078;2023-09-19T21:06:43;96788.82;;;17.15;85.61
24302;BME280;12421;49.732;20.078;2023-09-19T21:17:06;96791.61;;;17.12;85.52
24302;BME280;12421;49.732;20.078;2023-09-19T21:27:13;96792.73;;;17.14;86.01
24302;BME280;12421;49.732;20.078;2023-09-19T21:37:20;96798.56;;;17.15;86.11
24302;BME280;12421;49.732;20.078;2023-09-19T21:58:12;96796.62;;;16.92;85.59
24302;BME280;12421;49.732;20.078;2023-09-19T22:08:26;96796.77;;;16.84;85.61
24302;BME280;12421;49.732;20.078;2023-09-19T22:18:52;96799.89;;;16.66;85.26
24302;BME280;12421;49.732;20.078;2023-09-19T22:29:07;96802.92;;;16.46;85.13
24302;BME280;12421;49.732;20.078;2023-09-19T22:39:36;96806.06;;;16.37;85.28
24302;BME280;12421;49.732;20.078;2023-09-19T23:00:24;96806.56;;;16.23;85.12
24302;BME280;12421;49.732;20.078;2023-09-19T23:32:57;96825.31;;;15.51;85.51
24302;BME280;12421;49.732;20.078;2023-09-19T23:43:36;96823.96;;;15.36;86.13
24302;BME280;12421;49.732;20.078;2023-09-19T23:54:46;96831.80;;;15.35;85.52
